CheckWX is a tool to help pilots better visualize weather data.  It is not intended as a substitute for an official pre-flight weather briefing.

04:36:07 UTC

KMXF METAR
Maxwell AFB Airport
Montgomery, Alabama, USA
Current

40 mins ago

KMXF 180356Z AUTO 33009KT 10SM FEW017 OVC027 16/12 A2993 RMK AO2 RAE0257DZB0257E0259 SLP137 P0000 T01580116 $
Observed
Feb-18 @ 03:56 UTC
Wind
  • 330° at 9 KTS
Visibility
10 SM
Flight Rules
MVFR
Cloud Levels
  • Few at 1,700' AGL
  • Overcast at 2,700' AGL
Temperature
16°C / 61°F
Dewpoint
12°C / 54°F
Humidity
77%
Altimeter
29.93" Hg
Pressure
1013.7 hPa
Current Rain
0.01"
Previous

2 hours ago

KMXF 180259Z AUTO 32011G23KT 10SM FEW021 SCT027 SCT033 BKN055 17/15 A2990 RMK AO2 RAE57DZB57E59 SLP127 $
Observed
Feb-18 @ 02:59 UTC
Wind
  • 320° at 11 KTS
  • Gusting to 23 KTS
Visibility
10 SM
Flight Rules
VFR
Cloud Levels
  • Few at 2,100' AGL
  • Scattered at 2,700' AGL
  • Scattered at 3,300' AGL
  • Broken at 5,500' AGL
Temperature
17°C / 63°F
Dewpoint
15°C / 59°F
Humidity
88%
Altimeter
29.9" Hg
Pressure
1012.7 hPa
Previous

3 hours ago

KMXF 180156Z AUTO 21005KT 10SM FEW070 22/18 A2983 RMK AO2 SLP103 T02220182 $
Observed
Feb-18 @ 01:56 UTC
Wind
  • 210° at 5 KTS
Visibility
10 SM
Flight Rules
VFR
Cloud Levels
  • Few at 7,000' AGL
Temperature
22°C / 72°F
Dewpoint
18°C / 64°F
Humidity
78%
Altimeter
29.83" Hg
Pressure
1010.3 hPa